sensor_id;sensor_type;location;lat;lon;timestamp;P1;durP1;ratioP1;P2;durP2;ratioP2
75520;SDS011;64102;48.628;9.002;2022-10-16T00:00:40;1.50;;;0.00;;
75520;SDS011;64102;48.628;9.002;2022-10-16T00:03:07;2.05;;;0.03;;
75520;SDS011;64102;48.628;9.002;2022-10-16T00:05:37;1.23;;;0.00;;
75520;SDS011;64102;48.628;9.002;2022-10-16T00:08:03;0.75;;;0.00;;
75520;SDS011;64102;48.628;9.002;2022-10-16T00:10:29;1.02;;;0.00;;
75520;SDS011;64102;48.628;9.002;2022-10-16T00:12:54;1.47;;;0.30;;
75520;SDS011;64102;48.628;9.002;2022-10-16T00:15:20;1.33;;;0.08;;
75520;SDS011;64102;48.628;9.002;2022-10-16T00:17:45;1.40;;;0.00;;
75520;SDS011;64102;48.628;9.002;2022-10-16T00:20:10;0.93;;;0.00;;
75520;SDS011;64102;48.628;9.002;2022-10-16T00:22:36;0.38;;;0.00;;
75520;SDS011;64102;48.628;9.002;2022-10-16T00:25:01;0.85;;;0.00;;
75520;SDS011;64102;48.628;9.002;2022-10-16T00:27:27;0.80;;;0.00;;
75520;SDS011;64102;48.628;9.002;2022-10-16T00:29:52;0.97;;;0.00;;
75520;SDS011;64102;48.628;9.002;2022-10-16T00:32:19;1.23;;;0.07;;
75520;SDS011;64102;48.628;9.002;2022-10-16T00:34:44;0.75;;;0.00;;
75520;SDS011;64102;48.628;9.002;2022-10-16T00:37:10;1.65;;;0.10;;
75520;SDS011;64102;48.628;9.002;2022-10-16T00:39:36;1.15;;;0.00;;
75520;SDS011;64102;48.628;9.002;2022-10-16T00:42:01;0.68;;;0.00;;
75520;SDS011;64102;48.628;9.002;2022-10-16T00:47:19;1.23;;;0.20;;
75520;SDS011;64102;48.628;9.002;2022-10-16T00:52:39;1.77;;;0.10;;
75520;SDS011;64102;48.628;9.002;2022-10-16T00:55:09;1.42;;;0.10;;
75520;SDS011;64102;48.628;9.002;2022-10-16T00:57:35;1.77;;;0.10;;
75520;SDS011;64102;48.628;9.002;2022-10-16T01:00:02;0.88;;;0.00;;
75520;SDS011;64102;48.628;9.002;2022-10-16T01:02:30;0.95;;;0.00;;
75520;SDS011;64102;48.628;9.002;2022-10-16T01:04:55;0.50;;;0.00;;
75520;SDS011;64102;48.628;9.002;2022-10-16T01:07:26;1.60;;;0.10;;
75520;SDS011;64102;48.628;9.002;2022-10-16T01:12:38;1.95;;;0.00;;
75520;SDS011;64102;48.628;9.002;2022-10-16T01:17:46;0.77;;;0.00;;
75520;SDS011;64102;48.628;9.002;2022-10-16T01:20:20;3.33;;;0.10;;
75520;SDS011;64102;48.628;9.002;2022-10-16T01:28:05;1.67;;;0.00;;
75520;SDS011;64102;48.628;9.002;2022-10-16T01:30:36;1.50;;;0.00;;
75520;SDS011;64102;48.628;9.002;2022-10-16T01:33:40;0.68;;;0.00;;
75520;SDS011;64102;48.628;9.002;2022-10-16T01:36:05;0.95;;;0.00;;
75520;SDS011;64102;48.628;9.002;2022-10-16T01:38:40;0.32;;;0.00;;
75520;SDS011;64102;48.628;9.002;2022-10-16T01:41:12;1.45;;;0.00;;
75520;SDS011;64102;48.628;9.002;2022-10-16T01:43:53;0.43;;;0.00;;
75520;SDS011;64102;48.628;9.002;2022-10-16T01:46:26;0.60;;;0.00;;
75520;SDS011;64102;48.628;9.002;2022-10-16T01:48:53;0.70;;;0.05;;
75520;SDS011;64102;48.628;9.002;2022-10-16T01:51:20;0.93;;;0.00;;
75520;SDS011;64102;48.628;9.002;2022-10-16T01:53:48;1.50;;;0.10;;
75520;SDS011;64102;48.628;9.002;2022-10-16T01:56:18;0.98;;;0.00;;
75520;SDS011;64102;48.628;9.002;2022-10-16T01:58:49;1.10;;;0.10;;
75520;SDS011;64102;48.628;9.002;2022-10-16T02:01:18;1.45;;;0.00;;
75520;SDS011;64102;48.628;9.002;2022-10-16T02:03:45;2.15;;;0.00;;
75520;SDS011;64102;48.628;9.002;2022-10-16T02:06:13;1.80;;;0.10;;
75520;SDS011;64102;48.628;9.002;2022-10-16T02:08:38;0.65;;;0.08;;
75520;SDS011;64102;48.628;9.002;2022-10-16T02:11:08;2.42;;;0.05;;
75520;SDS011;64102;48.628;9.002;2022-10-16T02:13:54;0.65;;;0.05;;
75520;SDS011;64102;48.628;9.002;2022-10-16T02:16:32;0.77;;;0.00;;
75520;SDS011;64102;48.628;9.002;2022-10-16T02:19:05;1.05;;;0.03;;
75520;SDS011;64102;48.628;9.002;2022-10-16T02:29:18;1.67;;;0.22;;
75520;SDS011;64102;48.628;9.002;2022-10-16T02:31:49;2.38;;;0.10;;
75520;SDS011;64102;48.628;9.002;2022-10-16T02:34:17;1.02;;;0.00;;
75520;SDS011;64102;48.628;9.002;2022-10-16T02:36:43;1.25;;;0.00;;
75520;SDS011;64102;48.628;9.002;2022-10-16T02:39:11;1.75;;;0.00;;
75520;SDS011;64102;48.628;9.002;2022-10-16T02:41:36;1.55;;;0.10;;
75520;SDS011;64102;48.628;9.002;2022-10-16T02:44:02;1.55;;;0.00;;
75520;SDS011;64102;48.628;9.002;2022-10-16T02:46:28;1.50;;;0.10;;
75520;SDS011;64102;48.628;9.002;2022-10-16T02:48:53;1.23;;;0.00;;
75520;SDS011;64102;48.628;9.002;2022-10-16T02:51:18;1.27;;;0.00;;
75520;SDS011;64102;48.628;9.002;2022-10-16T02:53:44;0.52;;;0.00;;
75520;SDS011;64102;48.628;9.002;2022-10-16T02:56:09;1.38;;;0.03;;
75520;SDS011;64102;48.628;9.002;2022-10-16T02:58:35;1.02;;;0.00;;
75520;SDS011;64102;48.628;9.002;2022-10-16T03:01:00;0.55;;;0.00;;
75520;SDS011;64102;48.628;9.002;2022-10-16T03:03:26;0.95;;;0.08;;
75520;SDS011;64102;48.628;9.002;2022-10-16T03:05:51;0.97;;;0.00;;
75520;SDS011;64102;48.628;9.002;2022-10-16T03:08:16;2.17;;;0.10;;
75520;SDS011;64102;48.628;9.002;2022-10-16T03:10:42;0.93;;;0.00;;
75520;SDS011;64102;48.628;9.002;2022-10-16T03:13:07;2.33;;;0.00;;
75520;SDS011;64102;48.628;9.002;2022-10-16T03:15:33;0.88;;;0.00;;
75520;SDS011;64102;48.628;9.002;2022-10-16T03:17:58;1.43;;;0.00;;
75520;SDS011;64102;48.628;9.002;2022-10-16T03:20:24;1.23;;;0.08;;
75520;SDS011;64102;48.628;9.002;2022-10-16T03:22:49;1.05;;;0.00;;
75520;SDS011;64102;48.628;9.002;2022-10-16T03:25:15;0.80;;;0.00;;
75520;SDS011;64102;48.628;9.002;2022-10-16T03:27:40;1.38;;;0.00;;
75520;SDS011;64102;48.628;9.002;2022-10-16T03:30:06;0.77;;;0.00;;
75520;SDS011;64102;48.628;9.002;2022-10-16T03:32:32;1.08;;;0.00;;
75520;SDS011;64102;48.628;9.002;2022-10-16T03:34:57;1.10;;;0.00;;
75520;SDS011;64102;48.628;9.002;2022-10-16T03:37:23;1.43;;;0.13;;
75520;SDS011;64102;48.628;9.002;2022-10-16T03:39:48;0.63;;;0.00;;
75520;SDS011;64102;48.628;9.002;2022-10-16T03:42:14;0.70;;;0.00;;
75520;SDS011;64102;48.628;9.002;2022-10-16T03:44:39;0.60;;;0.00;;
75520;SDS011;64102;48.628;9.002;2022-10-16T03:47:05;1.10;;;0.00;;
75520;SDS011;64102;48.628;9.002;2022-10-16T03:49:30;1.67;;;0.00;;
75520;SDS011;64102;48.628;9.002;2022-10-16T03:51:55;0.77;;;0.00;;
75520;SDS011;64102;48.628;9.002;2022-10-16T03:54:21;1.40;;;0.00;;
75520;SDS011;64102;48.628;9.002;2022-10-16T03:56:47;2.40;;;0.00;;
75520;SDS011;64102;48.628;9.002;2022-10-16T03:59:13;0.90;;;0.00;;
75520;SDS011;64102;48.628;9.002;2022-10-16T04:01:38;1.97;;;0.10;;
75520;SDS011;64102;48.628;9.002;2022-10-16T04:04:04;0.82;;;0.00;;
75520;SDS011;64102;48.628;9.002;2022-10-16T04:06:29;0.65;;;0.00;;
75520;SDS011;64102;48.628;9.002;2022-10-16T04:08:54;0.67;;;0.00;;
75520;SDS011;64102;48.628;9.002;2022-10-16T04:11:20;0.88;;;0.00;;
75520;SDS011;64102;48.628;9.002;2022-10-16T04:13:46;1.40;;;0.00;;
75520;SDS011;64102;48.628;9.002;2022-10-16T04:16:11;3.10;;;0.10;;
75520;SDS011;64102;48.628;9.002;2022-10-16T04:18:36;2.80;;;0.00;;
75520;SDS011;64102;48.628;9.002;2022-10-16T04:21:05;1.13;;;0.10;;
75520;SDS011;64102;48.628;9.002;2022-10-16T04:23:31;1.08;;;0.00;;
75520;SDS011;64102;48.628;9.002;2022-10-16T04:25:57;0.82;;;0.00;;
75520;SDS011;64102;48.628;9.002;2022-10-16T04:28:23;1.00;;;0.00;;
75520;SDS011;64102;48.628;9.002;2022-10-16T04:30:49;1.60;;;0.10;;
75520;SDS011;64102;48.628;9.002;2022-10-16T04:33:14;0.47;;;0.00;;
75520;SDS011;64102;48.628;9.002;2022-10-16T04:35:40;0.97;;;0.00;;
75520;SDS011;64102;48.628;9.002;2022-10-16T04:38:05;2.20;;;0.10;;
75520;SDS011;64102;48.628;9.002;2022-10-16T04:40:30;0.73;;;0.00;;
75520;SDS011;64102;48.628;9.002;2022-10-16T04:43:01;1.55;;;0.00;;
75520;SDS011;64102;48.628;9.002;2022-10-16T04:45:27;1.40;;;0.10;;
75520;SDS011;64102;48.628;9.002;2022-10-16T04:47:52;1.43;;;0.10;;
75520;SDS011;64102;48.628;9.002;2022-10-16T04:50:18;2.47;;;0.20;;
75520;SDS011;64102;48.628;9.002;2022-10-16T04:52:43;0.95;;;0.10;;
75520;SDS011;64102;48.628;9.002;2022-10-16T04:55:08;0.73;;;0.00;;
75520;SDS011;64102;48.628;9.002;2022-10-16T04:57:34;0.95;;;0.00;;
75520;SDS011;64102;48.628;9.002;2022-10-16T04:59:59;0.73;;;0.00;;
75520;SDS011;64102;48.628;9.002;2022-10-16T05:02:25;1.35;;;0.00;;
75520;SDS011;64102;48.628;9.002;2022-10-16T05:04:51;0.80;;;0.00;;
75520;SDS011;64102;48.628;9.002;2022-10-16T05:07:16;0.95;;;0.00;;
75520;SDS011;64102;48.628;9.002;2022-10-16T05:09:41;4.07;;;0.20;;
75520;SDS011;64102;48.628;9.002;2022-10-16T05:12:07;0.67;;;0.00;;
75520;SDS011;64102;48.628;9.002;2022-10-16T05:14:32;1.67;;;0.00;;
75520;SDS011;64102;48.628;9.002;2022-10-16T05:16:59;1.63;;;0.10;;
75520;SDS011;64102;48.628;9.002;2022-10-16T05:19:25;1.40;;;0.10;;
75520;SDS011;64102;48.628;9.002;2022-10-16T05:21:50;1.33;;;0.10;;
75520;SDS011;64102;48.628;9.002;2022-10-16T05:24:15;0.97;;;0.10;;
75520;SDS011;64102;48.628;9.002;2022-10-16T05:26:41;1.40;;;0.00;;
75520;SDS011;64102;48.628;9.002;2022-10-16T05:29:06;1.05;;;0.13;;
75520;SDS011;64102;48.628;9.002;2022-10-16T05:31:32;0.80;;;0.00;;
75520;SDS011;64102;48.628;9.002;2022-10-16T05:34:00;0.60;;;0.00;;
75520;SDS011;64102;48.628;9.002;2022-10-16T05:36:26;1.17;;;0.08;;
75520;SDS011;64102;48.628;9.002;2022-10-16T05:38:52;1.00;;;0.05;;
75520;SDS011;64102;48.628;9.002;2022-10-16T05:41:17;1.38;;;0.00;;
75520;SDS011;64102;48.628;9.002;2022-10-16T05:43:46;2.35;;;0.20;;
75520;SDS011;64102;48.628;9.002;2022-10-16T05:46:12;1.40;;;0.10;;
75520;SDS011;64102;48.628;9.002;2022-10-16T05:48:38;1.13;;;0.10;;
75520;SDS011;64102;48.628;9.002;2022-10-16T05:51:05;0.38;;;0.00;;
75520;SDS011;64102;48.628;9.002;2022-10-16T05:53:34;1.85;;;0.00;;
75520;SDS011;64102;48.628;9.002;2022-10-16T05:56:00;2.30;;;0.10;;
75520;SDS011;64102;48.628;9.002;2022-10-16T05:58:31;2.15;;;0.10;;
75520;SDS011;64102;48.628;9.002;2022-10-16T06:00:59;5.75;;;0.10;;
75520;SDS011;64102;48.628;9.002;2022-10-16T06:03:26;2.03;;;0.10;;
75520;SDS011;64102;48.628;9.002;2022-10-16T06:05:52;2.17;;;0.10;;
75520;SDS011;64102;48.628;9.002;2022-10-16T06:08:19;1.27;;;0.10;;
75520;SDS011;64102;48.628;9.002;2022-10-16T06:10:46;2.28;;;0.10;;
75520;SDS011;64102;48.628;9.002;2022-10-16T06:13:12;1.52;;;0.10;;
75520;SDS011;64102;48.628;9.002;2022-10-16T06:15:39;1.67;;;0.10;;
75520;SDS011;64102;48.628;9.002;2022-10-16T06:18:07;2.95;;;0.10;;
75520;SDS011;64102;48.628;9.002;2022-10-16T06:20:36;2.80;;;0.20;;
75520;SDS011;64102;48.628;9.002;2022-10-16T06:23:02;3.20;;;0.20;;
75520;SDS011;64102;48.628;9.002;2022-10-16T06:25:29;2.63;;;0.20;;
75520;SDS011;64102;48.628;9.002;2022-10-16T06:27:55;2.28;;;0.20;;
75520;SDS011;64102;48.628;9.002;2022-10-16T06:30:21;3.03;;;0.30;;
75520;SDS011;64102;48.628;9.002;2022-10-16T06:32:46;2.90;;;0.20;;
75520;SDS011;64102;48.628;9.002;2022-10-16T06:35:11;3.93;;;0.10;;
75520;SDS011;64102;48.628;9.002;2022-10-16T06:37:37;2.00;;;0.10;;
75520;SDS011;64102;48.628;9.002;2022-10-16T06:40:02;1.88;;;0.10;;
75520;SDS011;64102;48.628;9.002;2022-10-16T06:42:29;3.10;;;0.15;;
75520;SDS011;64102;48.628;9.002;2022-10-16T06:44:55;1.33;;;0.10;;
75520;SDS011;64102;48.628;9.002;2022-10-16T06:47:20;1.00;;;0.08;;
75520;SDS011;64102;48.628;9.002;2022-10-16T06:49:45;0.80;;;0.00;;
75520;SDS011;64102;48.628;9.002;2022-10-16T06:52:11;0.70;;;0.00;;
75520;SDS011;64102;48.628;9.002;2022-10-16T06:54:36;1.65;;;0.00;;
75520;SDS011;64102;48.628;9.002;2022-10-16T06:57:02;0.93;;;0.00;;
75520;SDS011;64102;48.628;9.002;2022-10-16T06:59:27;0.52;;;0.00;;
75520;SDS011;64102;48.628;9.002;2022-10-16T07:01:52;4.65;;;0.35;;
75520;SDS011;64102;48.628;9.002;2022-10-16T07:04:18;0.60;;;0.00;;
75520;SDS011;64102;48.628;9.002;2022-10-16T07:06:43;1.25;;;0.05;;
75520;SDS011;64102;48.628;9.002;2022-10-16T07:09:09;1.93;;;0.00;;
75520;SDS011;64102;48.628;9.002;2022-10-16T07:11:38;0.55;;;0.00;;
75520;SDS011;64102;48.628;9.002;2022-10-16T07:14:05;2.53;;;0.00;;
75520;SDS011;64102;48.628;9.002;2022-10-16T07:16:40;0.93;;;0.10;;
75520;SDS011;64102;48.628;9.002;2022-10-16T07:19:05;2.45;;;0.10;;
75520;SDS011;64102;48.628;9.002;2022-10-16T07:21:31;2.60;;;0.10;;
75520;SDS011;64102;48.628;9.002;2022-10-16T07:24:02;2.80;;;0.10;;
75520;SDS011;64102;48.628;9.002;2022-10-16T07:26:29;2.78;;;0.10;;
75520;SDS011;64102;48.628;9.002;2022-10-16T07:28:56;2.25;;;0.30;;
75520;SDS011;64102;48.628;9.002;2022-10-16T07:31:22;1.33;;;0.10;;
75520;SDS011;64102;48.628;9.002;2022-10-16T07:33:48;0.55;;;0.00;;
75520;SDS011;64102;48.628;9.002;2022-10-16T07:36:15;1.25;;;0.00;;
75520;SDS011;64102;48.628;9.002;2022-10-16T07:38:42;2.17;;;0.10;;
75520;SDS011;64102;48.628;9.002;2022-10-16T07:41:09;1.45;;;0.10;;
75520;SDS011;64102;48.628;9.002;2022-10-16T07:43:36;1.08;;;0.03;;
75520;SDS011;64102;48.628;9.002;2022-10-16T07:46:02;2.65;;;0.10;;
75520;SDS011;64102;48.628;9.002;2022-10-16T07:48:29;2.00;;;0.10;;
75520;SDS011;64102;48.628;9.002;2022-10-16T07:50:56;1.50;;;0.10;;
75520;SDS011;64102;48.628;9.002;2022-10-16T07:53:23;2.38;;;0.10;;
75520;SDS011;64102;48.628;9.002;2022-10-16T07:55:48;1.80;;;0.10;;
75520;SDS011;64102;48.628;9.002;2022-10-16T07:58:14;3.13;;;0.20;;
75520;SDS011;64102;48.628;9.002;2022-10-16T08:00:39;2.57;;;0.10;;
75520;SDS011;64102;48.628;9.002;2022-10-16T08:03:04;2.65;;;0.10;;
75520;SDS011;64102;48.628;9.002;2022-10-16T08:05:31;1.88;;;0.10;;
75520;SDS011;64102;48.628;9.002;2022-10-16T08:07:58;2.17;;;0.00;;
75520;SDS011;64102;48.628;9.002;2022-10-16T08:10:24;2.15;;;0.10;;
75520;SDS011;64102;48.628;9.002;2022-10-16T08:12:51;2.03;;;0.10;;
75520;SDS011;64102;48.628;9.002;2022-10-16T08:15:17;0.90;;;0.00;;
75520;SDS011;64102;48.628;9.002;2022-10-16T08:17:44;1.73;;;0.10;;
75520;SDS011;64102;48.628;9.002;2022-10-16T08:20:10;1.30;;;0.10;;
75520;SDS011;64102;48.628;9.002;2022-10-16T08:22:36;0.55;;;0.05;;
75520;SDS011;64102;48.628;9.002;2022-10-16T08:25:01;1.05;;;0.00;;
75520;SDS011;64102;48.628;9.002;2022-10-16T08:27:33;1.23;;;0.00;;
75520;SDS011;64102;48.628;9.002;2022-10-16T08:29:58;2.45;;;0.03;;
75520;SDS011;64102;48.628;9.002;2022-10-16T08:32:24;0.73;;;0.00;;
75520;SDS011;64102;48.628;9.002;2022-10-16T08:34:49;1.38;;;0.08;;
75520;SDS011;64102;48.628;9.002;2022-10-16T08:37:14;0.93;;;0.03;;
75520;SDS011;64102;48.628;9.002;2022-10-16T08:39:40;1.03;;;0.00;;
75520;SDS011;64102;48.628;9.002;2022-10-16T08:47:41;2.25;;;0.10;;
75520;SDS011;64102;48.628;9.002;2022-10-16T08:50:38;1.25;;;0.10;;
75520;SDS011;64102;48.628;9.002;2022-10-16T08:53:03;1.75;;;0.10;;
75520;SDS011;64102;48.628;9.002;2022-10-16T08:57:59;1.30;;;0.00;;
75520;SDS011;64102;48.628;9.002;2022-10-16T09:00:26;2.45;;;0.20;;
75520;SDS011;64102;48.628;9.002;2022-10-16T09:19:51;1.97;;;0.20;;
75520;SDS011;64102;48.628;9.002;2022-10-16T09:22:25;1.60;;;0.13;;
75520;SDS011;64102;48.628;9.002;2022-10-16T09:24:54;1.77;;;0.08;;
75520;SDS011;64102;48.628;9.002;2022-10-16T09:27:24;1.63;;;0.10;;
75520;SDS011;64102;48.628;9.002;2022-10-16T09:29:51;2.92;;;0.32;;
75520;SDS011;64102;48.628;9.002;2022-10-16T09:32:18;2.08;;;0.10;;
75520;SDS011;64102;48.628;9.002;2022-10-16T09:34:52;1.80;;;0.20;;
75520;SDS011;64102;48.628;9.002;2022-10-16T09:37:22;1.85;;;0.30;;
75520;SDS011;64102;48.628;9.002;2022-10-16T09:39:50;2.60;;;0.85;;
75520;SDS011;64102;48.628;9.002;2022-10-16T09:42:21;2.45;;;0.52;;
75520;SDS011;64102;48.628;9.002;2022-10-16T09:44:52;1.83;;;0.38;;
75520;SDS011;64102;48.628;9.002;2022-10-16T09:47:19;2.88;;;0.43;;
75520;SDS011;64102;48.628;9.002;2022-10-16T09:49:52;2.38;;;1.13;;
75520;SDS011;64102;48.628;9.002;2022-10-16T09:52:24;2.90;;;2.17;;
75520;SDS011;64102;48.628;9.002;2022-10-16T09:54:54;3.00;;;1.33;;
75520;SDS011;64102;48.628;9.002;2022-10-16T09:57:22;2.88;;;1.15;;
75520;SDS011;64102;48.628;9.002;2022-10-16T09:59:49;3.35;;;1.80;;
75520;SDS011;64102;48.628;9.002;2022-10-16T10:02:17;1.58;;;0.20;;
75520;SDS011;64102;48.628;9.002;2022-10-16T10:04:51;2.70;;;0.20;;
75520;SDS011;64102;48.628;9.002;2022-10-16T10:07:26;1.30;;;0.20;;
75520;SDS011;64102;48.628;9.002;2022-10-16T10:09:53;4.88;;;0.52;;
75520;SDS011;64102;48.628;9.002;2022-10-16T10:12:25;3.85;;;1.00;;
75520;SDS011;64102;48.628;9.002;2022-10-16T10:14:56;3.50;;;1.90;;
75520;SDS011;64102;48.628;9.002;2022-10-16T10:17:23;2.33;;;0.65;;
75520;SDS011;64102;48.628;9.002;2022-10-16T10:19:54;4.10;;;2.33;;
75520;SDS011;64102;48.628;9.002;2022-10-16T10:24:57;2.25;;;0.70;;
75520;SDS011;64102;48.628;9.002;2022-10-16T10:41:32;3.90;;;2.22;;
75520;SDS011;64102;48.628;9.002;2022-10-16T10:46:50;4.60;;;2.15;;
75520;SDS011;64102;48.628;9.002;2022-10-16T10:52:05;4.18;;;1.45;;
75520;SDS011;64102;48.628;9.002;2022-10-16T11:06:29;1.88;;;0.60;;
75520;SDS011;64102;48.628;9.002;2022-10-16T11:09:25;2.88;;;0.38;;
75520;SDS011;64102;48.628;9.002;2022-10-16T11:12:00;2.03;;;0.32;;
75520;SDS011;64102;48.628;9.002;2022-10-16T11:17:39;1.85;;;0.40;;
75520;SDS011;64102;48.628;9.002;2022-10-16T11:25:22;2.33;;;1.02;;
75520;SDS011;64102;48.628;9.002;2022-10-16T11:28:00;3.17;;;1.45;;
75520;SDS011;64102;48.628;9.002;2022-10-16T11:36:12;3.08;;;2.47;;
75520;SDS011;64102;48.628;9.002;2022-10-16T11:41:49;5.15;;;4.65;;
75520;SDS011;64102;48.628;9.002;2022-10-16T11:46:57;4.63;;;3.17;;
75520;SDS011;64102;48.628;9.002;2022-10-16T11:49:25;4.88;;;3.33;;
75520;SDS011;64102;48.628;9.002;2022-10-16T11:57:33;4.47;;;2.40;;
75520;SDS011;64102;48.628;9.002;2022-10-16T12:00:08;4.38;;;2.83;;
75520;SDS011;64102;48.628;9.002;2022-10-16T12:05:20;4.72;;;3.47;;
75520;SDS011;64102;48.628;9.002;2022-10-16T12:08:11;8.00;;;7.35;;
75520;SDS011;64102;48.628;9.002;2022-10-16T12:10:37;5.20;;;2.65;;
75520;SDS011;64102;48.628;9.002;2022-10-16T12:13:05;4.43;;;2.15;;
75520;SDS011;64102;48.628;9.002;2022-10-16T12:18:37;2.63;;;1.33;;
75520;SDS011;64102;48.628;9.002;2022-10-16T12:21:07;4.05;;;0.63;;
75520;SDS011;64102;48.628;9.002;2022-10-16T12:23:36;2.20;;;0.55;;
75520;SDS011;64102;48.628;9.002;2022-10-16T12:26:04;3.72;;;1.80;;
75520;SDS011;64102;48.628;9.002;2022-10-16T12:28:31;4.13;;;1.77;;
75520;SDS011;64102;48.628;9.002;2022-10-16T12:31:04;2.92;;;1.25;;
75520;SDS011;64102;48.628;9.002;2022-10-16T12:33:32;2.88;;;1.05;;
75520;SDS011;64102;48.628;9.002;2022-10-16T12:36:00;2.75;;;0.57;;
75520;SDS011;64102;48.628;9.002;2022-10-16T12:38:50;3.35;;;0.43;;
75520;SDS011;64102;48.628;9.002;2022-10-16T12:41:26;2.05;;;0.40;;
75520;SDS011;64102;48.628;9.002;2022-10-16T12:43:56;1.58;;;0.10;;
75520;SDS011;64102;48.628;9.002;2022-10-16T12:49:04;2.10;;;0.45;;
75520;SDS011;64102;48.628;9.002;2022-10-16T12:51:39;2.53;;;0.20;;
75520;SDS011;64102;48.628;9.002;2022-10-16T12:56:58;2.58;;;0.47;;
75520;SDS011;64102;48.628;9.002;2022-10-16T13:10:58;2.28;;;1.15;;
75520;SDS011;64102;48.628;9.002;2022-10-16T13:13:46;2.92;;;0.68;;
75520;SDS011;64102;48.628;9.002;2022-10-16T13:19:35;2.47;;;0.47;;
75520;SDS011;64102;48.628;9.002;2022-10-16T13:27:46;1.85;;;0.75;;
75520;SDS011;64102;48.628;9.002;2022-10-16T13:30:27;2.63;;;1.50;;
75520;SDS011;64102;48.628;9.002;2022-10-16T13:33:00;1.67;;;0.63;;
75520;SDS011;64102;48.628;9.002;2022-10-16T13:35:28;1.85;;;0.50;;
75520;SDS011;64102;48.628;9.002;2022-10-16T13:40:36;2.78;;;0.52;;
75520;SDS011;64102;48.628;9.002;2022-10-16T13:43:13;2.38;;;0.50;;
75520;SDS011;64102;48.628;9.002;2022-10-16T13:45:39;2.58;;;0.20;;
75520;SDS011;64102;48.628;9.002;2022-10-16T13:48:05;2.53;;;0.30;;
75520;SDS011;64102;48.628;9.002;2022-10-16T13:50:34;1.15;;;0.28;;
75520;SDS011;64102;48.628;9.002;2022-10-16T13:53:06;1.75;;;0.20;;
75520;SDS011;64102;48.628;9.002;2022-10-16T13:55:38;1.65;;;0.30;;
75520;SDS011;64102;48.628;9.002;2022-10-16T13:58:13;2.53;;;0.47;;
75520;SDS011;64102;48.628;9.002;2022-10-16T14:00:39;2.70;;;0.35;;
75520;SDS011;64102;48.628;9.002;2022-10-16T14:03:17;2.80;;;0.35;;
75520;SDS011;64102;48.628;9.002;2022-10-16T14:06:03;1.60;;;0.20;;
75520;SDS011;64102;48.628;9.002;2022-10-16T14:08:36;1.88;;;0.20;;
75520;SDS011;64102;48.628;9.002;2022-10-16T14:11:08;1.25;;;0.15;;
75520;SDS011;64102;48.628;9.002;2022-10-16T14:13:36;2.72;;;0.40;;
75520;SDS011;64102;48.628;9.002;2022-10-16T14:16:05;1.48;;;0.10;;
75520;SDS011;64102;48.628;9.002;2022-10-16T14:18:34;1.42;;;0.20;;
75520;SDS011;64102;48.628;9.002;2022-10-16T14:21:07;2.95;;;0.43;;
75520;SDS011;64102;48.628;9.002;2022-10-16T14:23:38;2.75;;;0.50;;
75520;SDS011;64102;48.628;9.002;2022-10-16T14:26:15;2.05;;;0.13;;
75520;SDS011;64102;48.628;9.002;2022-10-16T14:28:43;1.92;;;0.30;;
75520;SDS011;64102;48.628;9.002;2022-10-16T14:33:44;2.10;;;0.28;;
75520;SDS011;64102;48.628;9.002;2022-10-16T14:38:35;2.00;;;0.30;;
75520;SDS011;64102;48.628;9.002;2022-10-16T14:41:02;2.30;;;0.20;;
75520;SDS011;64102;48.628;9.002;2022-10-16T14:45:57;1.50;;;0.15;;
75520;SDS011;64102;48.628;9.002;2022-10-16T14:48:23;1.60;;;0.20;;
75520;SDS011;64102;48.628;9.002;2022-10-16T14:50:50;2.17;;;0.25;;
75520;SDS011;64102;48.628;9.002;2022-10-16T14:53:15;2.97;;;0.22;;
75520;SDS011;64102;48.628;9.002;2022-10-16T14:55:41;3.25;;;0.30;;
75520;SDS011;64102;48.628;9.002;2022-10-16T14:58:13;2.47;;;0.30;;
75520;SDS011;64102;48.628;9.002;2022-10-16T15:00:41;3.05;;;0.40;;
75520;SDS011;64102;48.628;9.002;2022-10-16T15:03:07;2.72;;;0.30;;
75520;SDS011;64102;48.628;9.002;2022-10-16T15:05:32;2.17;;;0.30;;
75520;SDS011;64102;48.628;9.002;2022-10-16T15:07:57;1.52;;;0.10;;
75520;SDS011;64102;48.628;9.002;2022-10-16T15:10:24;1.75;;;0.10;;
75520;SDS011;64102;48.628;9.002;2022-10-16T15:12:52;2.03;;;0.35;;
75520;SDS011;64102;48.628;9.002;2022-10-16T15:18:03;4.18;;;0.10;;
75520;SDS011;64102;48.628;9.002;2022-10-16T15:20:30;1.90;;;0.10;;
75520;SDS011;64102;48.628;9.002;2022-10-16T15:23:04;1.80;;;0.10;;
75520;SDS011;64102;48.628;9.002;2022-10-16T15:25:37;1.38;;;0.13;;
75520;SDS011;64102;48.628;9.002;2022-10-16T15:28:07;2.00;;;0.17;;
75520;SDS011;64102;48.628;9.002;2022-10-16T15:30:33;2.42;;;0.20;;
75520;SDS011;64102;48.628;9.002;2022-10-16T15:32:59;2.58;;;0.22;;
75520;SDS011;64102;48.628;9.002;2022-10-16T15:35:25;4.38;;;0.13;;
75520;SDS011;64102;48.628;9.002;2022-10-16T15:37:51;1.65;;;0.25;;
75520;SDS011;64102;48.628;9.002;2022-10-16T15:40:17;1.60;;;0.15;;
75520;SDS011;64102;48.628;9.002;2022-10-16T15:42:44;2.10;;;0.17;;
75520;SDS011;64102;48.628;9.002;2022-10-16T15:45:09;2.28;;;0.20;;
75520;SDS011;64102;48.628;9.002;2022-10-16T15:47:36;0.93;;;0.10;;
75520;SDS011;64102;48.628;9.002;2022-10-16T15:50:02;0.95;;;0.10;;
75520;SDS011;64102;48.628;9.002;2022-10-16T15:52:28;2.15;;;0.10;;
75520;SDS011;64102;48.628;9.002;2022-10-16T15:54:55;3.38;;;0.20;;
75520;SDS011;64102;48.628;9.002;2022-10-16T15:57:21;0.80;;;0.00;;
75520;SDS011;64102;48.628;9.002;2022-10-16T15:59:46;4.55;;;0.20;;
75520;SDS011;64102;48.628;9.002;2022-10-16T16:02:12;4.32;;;0.30;;
75520;SDS011;64102;48.628;9.002;2022-10-16T16:04:37;1.57;;;0.10;;
75520;SDS011;64102;48.628;9.002;2022-10-16T16:07:02;2.37;;;0.10;;
75520;SDS011;64102;48.628;9.002;2022-10-16T16:09:31;4.63;;;0.40;;
75520;SDS011;64102;48.628;9.002;2022-10-16T16:11:56;12.77;;;2.13;;
75520;SDS011;64102;48.628;9.002;2022-10-16T16:14:25;18.88;;;5.20;;
75520;SDS011;64102;48.628;9.002;2022-10-16T16:16:52;12.75;;;2.72;;
75520;SDS011;64102;48.628;9.002;2022-10-16T16:19:21;15.95;;;3.70;;
75520;SDS011;64102;48.628;9.002;2022-10-16T16:21:47;65.00;;;21.27;;
75520;SDS011;64102;48.628;9.002;2022-10-16T16:24:13;56.88;;;14.93;;
75520;SDS011;64102;48.628;9.002;2022-10-16T16:26:38;18.83;;;3.90;;
75520;SDS011;64102;48.628;9.002;2022-10-16T16:29:08;8.02;;;1.08;;
75520;SDS011;64102;48.628;9.002;2022-10-16T16:31:36;5.30;;;0.50;;
75520;SDS011;64102;48.628;9.002;2022-10-16T16:34:02;3.60;;;0.20;;
75520;SDS011;64102;48.628;9.002;2022-10-16T16:36:28;4.18;;;0.28;;
75520;SDS011;64102;48.628;9.002;2022-10-16T16:38:53;4.82;;;0.30;;
75520;SDS011;64102;48.628;9.002;2022-10-16T16:41:23;3.50;;;0.20;;
75520;SDS011;64102;48.628;9.002;2022-10-16T16:43:51;2.08;;;0.10;;
75520;SDS011;64102;48.628;9.002;2022-10-16T16:46:17;2.13;;;0.10;;
75520;SDS011;64102;48.628;9.002;2022-10-16T16:48:43;2.60;;;0.15;;
75520;SDS011;64102;48.628;9.002;2022-10-16T16:51:11;5.28;;;0.20;;
75520;SDS011;64102;48.628;9.002;2022-10-16T16:53:41;2.40;;;0.20;;
75520;SDS011;64102;48.628;9.002;2022-10-16T16:56:08;3.05;;;0.10;;
75520;SDS011;64102;48.628;9.002;2022-10-16T16:58:34;2.58;;;0.20;;
75520;SDS011;64102;48.628;9.002;2022-10-16T17:01:00;3.60;;;0.20;;
75520;SDS011;64102;48.628;9.002;2022-10-16T17:03:30;1.48;;;0.10;;
75520;SDS011;64102;48.628;9.002;2022-10-16T17:06:00;6.47;;;0.10;;
75520;SDS011;64102;48.628;9.002;2022-10-16T17:08:28;2.63;;;0.15;;
75520;SDS011;64102;48.628;9.002;2022-10-16T17:10:55;2.88;;;0.10;;
75520;SDS011;64102;48.628;9.002;2022-10-16T17:13:25;2.17;;;0.20;;
75520;SDS011;64102;48.628;9.002;2022-10-16T17:15:52;3.92;;;0.10;;
75520;SDS011;64102;48.628;9.002;2022-10-16T17:18:18;4.07;;;0.20;;
75520;SDS011;64102;48.628;9.002;2022-10-16T17:20:45;2.55;;;0.20;;
75520;SDS011;64102;48.628;9.002;2022-10-16T17:23:11;3.80;;;0.20;;
75520;SDS011;64102;48.628;9.002;2022-10-16T17:25:37;1.40;;;0.17;;